sensor_id;sensor_type;location;lat;lon;timestamp;temperature;humidity
22491;DHT22;11412;50.802;4.350;2023-04-06T00:01:07;9.70;99.90
22491;DHT22;11412;50.802;4.350;2023-04-06T00:03:34;9.80;99.90
22491;DHT22;11412;50.802;4.350;2023-04-06T00:05:59;10.00;99.90
22491;DHT22;11412;50.802;4.350;2023-04-06T00:08:26;10.20;99.90
22491;DHT22;11412;50.802;4.350;2023-04-06T00:10:52;10.00;99.90
22491;DHT22;11412;50.802;4.350;2023-04-06T00:13:17;10.00;99.90
22491;DHT22;11412;50.802;4.350;2023-04-06T00:15:43;10.00;99.90
22491;DHT22;11412;50.802;4.350;2023-04-06T00:18:09;9.80;99.90
22491;DHT22;11412;50.802;4.350;2023-04-06T00:20:35;9.70;99.90
22491;DHT22;11412;50.802;4.350;2023-04-06T00:23:00;9.60;99.90
22491;DHT22;11412;50.802;4.350;2023-04-06T00:25:26;9.70;99.90
22491;DHT22;11412;50.802;4.350;2023-04-06T00:27:52;9.70;99.90
22491;DHT22;11412;50.802;4.350;2023-04-06T00:30:18;9.40;99.90
22491;DHT22;11412;50.802;4.350;2023-04-06T00:32:43;9.40;99.90
22491;DHT22;11412;50.802;4.350;2023-04-06T00:35:09;9.50;99.90
22491;DHT22;11412;50.802;4.350;2023-04-06T00:37:36;9.60;99.90
22491;DHT22;11412;50.802;4.350;2023-04-06T00:40:02;9.60;99.90
22491;DHT22;11412;50.802;4.350;2023-04-06T00:42:28;9.60;99.90
22491;DHT22;11412;50.802;4.350;2023-04-06T00:44:56;9.90;99.90
22491;DHT22;11412;50.802;4.350;2023-04-06T00:47:22;9.70;99.90
22491;DHT22;11412;50.802;4.350;2023-04-06T00:49:48;9.70;99.90
22491;DHT22;11412;50.802;4.350;2023-04-06T00:52:15;9.60;99.90
22491;DHT22;11412;50.802;4.350;2023-04-06T00:54:41;9.80;99.90
22491;DHT22;11412;50.802;4.350;2023-04-06T00:57:06;10.00;99.90
22491;DHT22;11412;50.802;4.350;2023-04-06T00:59:32;9.80;99.90
22491;DHT22;11412;50.802;4.350;2023-04-06T01:01:58;9.70;99.90
22491;DHT22;11412;50.802;4.350;2023-04-06T01:04:24;9.80;99.90
22491;DHT22;11412;50.802;4.350;2023-04-06T01:06:50;9.90;99.90
22491;DHT22;11412;50.802;4.350;2023-04-06T01:09:17;9.70;99.90
22491;DHT22;11412;50.802;4.350;2023-04-06T01:11:43;9.50;99.90
22491;DHT22;11412;50.802;4.350;2023-04-06T01:14:09;9.40;99.90
22491;DHT22;11412;50.802;4.350;2023-04-06T01:16:35;9.20;99.90
22491;DHT22;11412;50.802;4.350;2023-04-06T01:19:04;9.10;99.90
22491;DHT22;11412;50.802;4.350;2023-04-06T01:21:32;9.00;99.90
22491;DHT22;11412;50.802;4.350;2023-04-06T01:23:57;8.90;99.90
22491;DHT22;11412;50.802;4.350;2023-04-06T01:26:23;9.00;99.90
22491;DHT22;11412;50.802;4.350;2023-04-06T01:28:49;9.00;99.90
22491;DHT22;11412;50.802;4.350;2023-04-06T01:31:15;9.00;99.90
22491;DHT22;11412;50.802;4.350;2023-04-06T01:33:40;9.30;99.90
22491;DHT22;11412;50.802;4.350;2023-04-06T01:36:06;9.50;99.90
22491;DHT22;11412;50.802;4.350;2023-04-06T01:38:32;9.30;99.90
22491;DHT22;11412;50.802;4.350;2023-04-06T01:40:58;9.10;99.90
22491;DHT22;11412;50.802;4.350;2023-04-06T01:43:23;8.90;99.90
22491;DHT22;11412;50.802;4.350;2023-04-06T01:45:49;8.90;99.90
22491;DHT22;11412;50.802;4.350;2023-04-06T01:48:15;8.80;99.90
22491;DHT22;11412;50.802;4.350;2023-04-06T01:50:41;9.00;99.90
22491;DHT22;11412;50.802;4.350;2023-04-06T01:53:06;9.10;99.90
22491;DHT22;11412;50.802;4.350;2023-04-06T01:55:32;9.00;99.90
22491;DHT22;11412;50.802;4.350;2023-04-06T01:57:58;8.80;99.90
22491;DHT22;11412;50.802;4.350;2023-04-06T02:00:23;9.10;99.90
22491;DHT22;11412;50.802;4.350;2023-04-06T02:02:49;8.80;99.90
22491;DHT22;11412;50.802;4.350;2023-04-06T02:05:15;8.80;99.90
22491;DHT22;11412;50.802;4.350;2023-04-06T02:07:41;8.90;99.90
22491;DHT22;11412;50.802;4.350;2023-04-06T02:10:12;8.90;99.90
22491;DHT22;11412;50.802;4.350;2023-04-06T02:12:38;8.70;99.90
22491;DHT22;11412;50.802;4.350;2023-04-06T02:15:04;8.40;99.90
22491;DHT22;11412;50.802;4.350;2023-04-06T02:17:30;8.30;99.90
22491;DHT22;11412;50.802;4.350;2023-04-06T02:19:56;8.20;99.90
22491;DHT22;11412;50.802;4.350;2023-04-06T02:22:21;8.40;99.90
22491;DHT22;11412;50.802;4.350;2023-04-06T02:24:47;8.10;99.90
22491;DHT22;11412;50.802;4.350;2023-04-06T02:27:14;8.00;99.90
22491;DHT22;11412;50.802;4.350;2023-04-06T02:29:40;8.00;99.90
22491;DHT22;11412;50.802;4.350;2023-04-06T02:32:06;8.00;99.90
22491;DHT22;11412;50.802;4.350;2023-04-06T02:34:31;7.90;99.90
22491;DHT22;11412;50.802;4.350;2023-04-06T02:36:57;7.80;99.90
22491;DHT22;11412;50.802;4.350;2023-04-06T02:39:23;7.70;99.90
22491;DHT22;11412;50.802;4.350;2023-04-06T02:41:49;7.80;99.90
22491;DHT22;11412;50.802;4.350;2023-04-06T02:44:14;8.00;99.90
22491;DHT22;11412;50.802;4.350;2023-04-06T02:46:40;8.00;99.90
22491;DHT22;11412;50.802;4.350;2023-04-06T02:49:06;8.10;99.90
22491;DHT22;11412;50.802;4.350;2023-04-06T02:51:31;8.20;99.90
22491;DHT22;11412;50.802;4.350;2023-04-06T02:53:58;8.20;99.90
22491;DHT22;11412;50.802;4.350;2023-04-06T02:56:24;8.10;99.90
22491;DHT22;11412;50.802;4.350;2023-04-06T02:58:50;8.20;99.90
22491;DHT22;11412;50.802;4.350;2023-04-06T03:01:15;8.20;99.90
22491;DHT22;11412;50.802;4.350;2023-04-06T03:03:41;8.20;99.90
22491;DHT22;11412;50.802;4.350;2023-04-06T03:06:07;8.20;99.90
22491;DHT22;11412;50.802;4.350;2023-04-06T03:08:33;8.20;99.90
22491;DHT22;11412;50.802;4.350;2023-04-06T03:10:58;8.20;99.90
22491;DHT22;11412;50.802;4.350;2023-04-06T03:13:24;8.40;99.90
22491;DHT22;11412;50.802;4.350;2023-04-06T03:15:50;8.50;99.90
22491;DHT22;11412;50.802;4.350;2023-04-06T03:18:17;8.40;99.90
22491;DHT22;11412;50.802;4.350;2023-04-06T03:20:43;8.30;99.90
22491;DHT22;11412;50.802;4.350;2023-04-06T03:23:08;8.20;99.90
22491;DHT22;11412;50.802;4.350;2023-04-06T03:25:34;8.10;99.90
22491;DHT22;11412;50.802;4.350;2023-04-06T03:28:00;8.20;99.90
22491;DHT22;11412;50.802;4.350;2023-04-06T03:30:26;8.10;99.90
22491;DHT22;11412;50.802;4.350;2023-04-06T03:32:52;7.90;99.90
22491;DHT22;11412;50.802;4.350;2023-04-06T03:35:18;8.10;99.90
22491;DHT22;11412;50.802;4.350;2023-04-06T03:37:44;8.00;99.90
22491;DHT22;11412;50.802;4.350;2023-04-06T03:40:10;7.90;99.90
22491;DHT22;11412;50.802;4.350;2023-04-06T03:42:35;7.70;99.90
22491;DHT22;11412;50.802;4.350;2023-04-06T03:45:01;7.60;99.90
22491;DHT22;11412;50.802;4.350;2023-04-06T03:47:27;7.80;99.90
22491;DHT22;11412;50.802;4.350;2023-04-06T03:49:52;8.10;99.90
22491;DHT22;11412;50.802;4.350;2023-04-06T03:52:18;8.20;99.90
22491;DHT22;11412;50.802;4.350;2023-04-06T03:54:44;8.10;99.90
22491;DHT22;11412;50.802;4.350;2023-04-06T03:57:09;8.10;99.90
22491;DHT22;11412;50.802;4.350;2023-04-06T03:59:35;8.00;99.90
22491;DHT22;11412;50.802;4.350;2023-04-06T04:02:01;7.90;99.90
22491;DHT22;11412;50.802;4.350;2023-04-06T04:04:26;7.80;99.90
22491;DHT22;11412;50.802;4.350;2023-04-06T04:06:52;7.90;99.90
22491;DHT22;11412;50.802;4.350;2023-04-06T04:09:18;8.00;99.90
22491;DHT22;11412;50.802;4.350;2023-04-06T04:11:43;8.00;99.90
22491;DHT22;11412;50.802;4.350;2023-04-06T04:14:09;7.80;99.90
22491;DHT22;11412;50.802;4.350;2023-04-06T04:16:35;7.90;99.90
22491;DHT22;11412;50.802;4.350;2023-04-06T04:19:01;7.70;99.90
22491;DHT22;11412;50.802;4.350;2023-04-06T04:21:29;7.80;99.90
22491;DHT22;11412;50.802;4.350;2023-04-06T04:23:56;7.80;99.90
22491;DHT22;11412;50.802;4.350;2023-04-06T04:26:21;7.80;99.90
22491;DHT22;11412;50.802;4.350;2023-04-06T04:28:47;7.90;99.90
22491;DHT22;11412;50.802;4.350;2023-04-06T04:31:13;7.90;99.90
22491;DHT22;11412;50.802;4.350;2023-04-06T04:33:38;7.80;99.90
22491;DHT22;11412;50.802;4.350;2023-04-06T04:36:04;7.80;99.90
22491;DHT22;11412;50.802;4.350;2023-04-06T04:38:30;7.80;99.90
22491;DHT22;11412;50.802;4.350;2023-04-06T04:40:56;7.80;99.90
22491;DHT22;11412;50.802;4.350;2023-04-06T04:43:22;7.80;99.90
22491;DHT22;11412;50.802;4.350;2023-04-06T04:45:47;7.80;99.90
22491;DHT22;11412;50.802;4.350;2023-04-06T04:48:13;7.80;99.90
22491;DHT22;11412;50.802;4.350;2023-04-06T04:50:39;8.00;99.90
22491;DHT22;11412;50.802;4.350;2023-04-06T04:53:04;8.00;99.90
22491;DHT22;11412;50.802;4.350;2023-04-06T04:55:31;8.00;99.90
22491;DHT22;11412;50.802;4.350;2023-04-06T04:57:57;7.90;99.90
22491;DHT22;11412;50.802;4.350;2023-04-06T05:00:23;8.00;99.90
22491;DHT22;11412;50.802;4.350;2023-04-06T05:02:48;8.10;99.90
22491;DHT22;11412;50.802;4.350;2023-04-06T05:05:14;8.40;99.90
22491;DHT22;11412;50.802;4.350;2023-04-06T05:07:40;8.30;99.90
22491;DHT22;11412;50.802;4.350;2023-04-06T05:10:06;8.20;99.90
22491;DHT22;11412;50.802;4.350;2023-04-06T05:12:32;8.10;99.90
22491;DHT22;11412;50.802;4.350;2023-04-06T05:14:58;8.10;99.90
22491;DHT22;11412;50.802;4.350;2023-04-06T05:17:23;8.00;99.90
22491;DHT22;11412;50.802;4.350;2023-04-06T05:19:49;8.00;99.90
22491;DHT22;11412;50.802;4.350;2023-04-06T05:22:15;8.00;99.90
22491;DHT22;11412;50.802;4.350;2023-04-06T05:24:43;8.10;99.90
22491;DHT22;11412;50.802;4.350;2023-04-06T05:27:09;8.10;99.90
22491;DHT22;11412;50.802;4.350;2023-04-06T05:29:35;8.10;99.90
22491;DHT22;11412;50.802;4.350;2023-04-06T05:32:01;8.10;99.90
22491;DHT22;11412;50.802;4.350;2023-04-06T05:34:27;8.30;99.90
22491;DHT22;11412;50.802;4.350;2023-04-06T05:36:52;8.30;99.90
22491;DHT22;11412;50.802;4.350;2023-04-06T05:39:18;8.40;99.90
22491;DHT22;11412;50.802;4.350;2023-04-06T05:41:44;8.60;99.90
22491;DHT22;11412;50.802;4.350;2023-04-06T05:44:10;8.50;99.90
22491;DHT22;11412;50.802;4.350;2023-04-06T05:46:36;8.50;99.90
22491;DHT22;11412;50.802;4.350;2023-04-06T05:49:02;8.60;99.90
22491;DHT22;11412;50.802;4.350;2023-04-06T05:51:27;8.70;99.90
22491;DHT22;11412;50.802;4.350;2023-04-06T05:53:53;8.80;99.90
22491;DHT22;11412;50.802;4.350;2023-04-06T05:56:19;9.00;99.90
22491;DHT22;11412;50.802;4.350;2023-04-06T05:58:44;9.10;99.90
22491;DHT22;11412;50.802;4.350;2023-04-06T06:01:10;9.20;99.90
22491;DHT22;11412;50.802;4.350;2023-04-06T06:03:36;9.00;99.90
22491;DHT22;11412;50.802;4.350;2023-04-06T06:06:02;9.10;99.90
22491;DHT22;11412;50.802;4.350;2023-04-06T06:08:29;9.40;99.90
22491;DHT22;11412;50.802;4.350;2023-04-06T06:10:55;9.60;99.90
22491;DHT22;11412;50.802;4.350;2023-04-06T06:13:22;9.80;99.90
22491;DHT22;11412;50.802;4.350;2023-04-06T06:15:48;9.70;99.90
22491;DHT22;11412;50.802;4.350;2023-04-06T06:18:14;9.30;99.90
22491;DHT22;11412;50.802;4.350;2023-04-06T06:20:40;9.20;99.90
22491;DHT22;11412;50.802;4.350;2023-04-06T06:23:05;9.40;99.90
22491;DHT22;11412;50.802;4.350;2023-04-06T06:25:32;9.40;99.90
22491;DHT22;11412;50.802;4.350;2023-04-06T06:27:58;9.50;99.90
22491;DHT22;11412;50.802;4.350;2023-04-06T06:30:23;9.70;99.90
22491;DHT22;11412;50.802;4.350;2023-04-06T06:32:50;9.70;99.90
22491;DHT22;11412;50.802;4.350;2023-04-06T06:35:16;9.70;99.90
22491;DHT22;11412;50.802;4.350;2023-04-06T06:37:42;9.50;99.90
22491;DHT22;11412;50.802;4.350;2023-04-06T06:40:09;9.40;99.90
22491;DHT22;11412;50.802;4.350;2023-04-06T06:42:35;9.50;99.90
22491;DHT22;11412;50.802;4.350;2023-04-06T06:45:01;9.70;99.90
22491;DHT22;11412;50.802;4.350;2023-04-06T06:47:27;9.30;99.90
22491;DHT22;11412;50.802;4.350;2023-04-06T06:49:53;9.10;99.90
22491;DHT22;11412;50.802;4.350;2023-04-06T06:52:18;9.10;99.90
22491;DHT22;11412;50.802;4.350;2023-04-06T06:54:44;9.20;99.90
22491;DHT22;11412;50.802;4.350;2023-04-06T06:57:10;9.40;99.90
22491;DHT22;11412;50.802;4.350;2023-04-06T06:59:35;9.50;99.90
22491;DHT22;11412;50.802;4.350;2023-04-06T07:02:01;9.50;99.90
22491;DHT22;11412;50.802;4.350;2023-04-06T07:04:27;9.70;99.90
22491;DHT22;11412;50.802;4.350;2023-04-06T07:06:52;9.20;99.90
22491;DHT22;11412;50.802;4.350;2023-04-06T07:09:18;9.10;99.90
22491;DHT22;11412;50.802;4.350;2023-04-06T07:11:44;9.10;99.90
22491;DHT22;11412;50.802;4.350;2023-04-06T07:14:10;8.90;99.90
22491;DHT22;11412;50.802;4.350;2023-04-06T07:16:37;9.00;99.90
22491;DHT22;11412;50.802;4.350;2023-04-06T07:19:02;9.10;99.90
22491;DHT22;11412;50.802;4.350;2023-04-06T07:21:28;8.80;99.90
22491;DHT22;11412;50.802;4.350;2023-04-06T07:23:54;8.60;99.90
22491;DHT22;11412;50.802;4.350;2023-04-06T07:26:20;8.50;99.90
22491;DHT22;11412;50.802;4.350;2023-04-06T07:28:45;8.60;99.90
22491;DHT22;11412;50.802;4.350;2023-04-06T07:31:11;8.60;99.90
22491;DHT22;11412;50.802;4.350;2023-04-06T07:33:37;8.40;99.90
22491;DHT22;11412;50.802;4.350;2023-04-06T07:36:03;8.40;99.90
22491;DHT22;11412;50.802;4.350;2023-04-06T07:38:28;9.10;99.90
22491;DHT22;11412;50.802;4.350;2023-04-06T07:40:54;9.40;99.90
22491;DHT22;11412;50.802;4.350;2023-04-06T07:43:20;9.70;99.90
22491;DHT22;11412;50.802;4.350;2023-04-06T07:45:46;9.20;99.90
22491;DHT22;11412;50.802;4.350;2023-04-06T07:48:12;9.50;99.90
22491;DHT22;11412;50.802;4.350;2023-04-06T07:50:37;9.30;99.90
22491;DHT22;11412;50.802;4.350;2023-04-06T07:53:05;9.40;99.90
22491;DHT22;11412;50.802;4.350;2023-04-06T07:55:30;9.60;99.90
22491;DHT22;11412;50.802;4.350;2023-04-06T07:57:56;9.70;99.90
22491;DHT22;11412;50.802;4.350;2023-04-06T08:00:22;9.50;99.90
22491;DHT22;11412;50.802;4.350;2023-04-06T08:02:47;9.40;99.90
22491;DHT22;11412;50.802;4.350;2023-04-06T08:05:13;9.30;99.90
22491;DHT22;11412;50.802;4.350;2023-04-06T08:07:39;9.50;99.90
22491;DHT22;11412;50.802;4.350;2023-04-06T08:10:05;9.50;99.90
22491;DHT22;11412;50.802;4.350;2023-04-06T08:12:32;9.40;99.90
22491;DHT22;11412;50.802;4.350;2023-04-06T08:14:58;9.30;99.90
22491;DHT22;11412;50.802;4.350;2023-04-06T08:17:24;9.60;99.90
22491;DHT22;11412;50.802;4.350;2023-04-06T08:19:51;9.20;99.90
22491;DHT22;11412;50.802;4.350;2023-04-06T08:22:16;9.70;99.90
22491;DHT22;11412;50.802;4.350;2023-04-06T08:24:42;9.80;99.90
22491;DHT22;11412;50.802;4.350;2023-04-06T08:27:07;9.70;99.90
22491;DHT22;11412;50.802;4.350;2023-04-06T08:29:33;9.40;99.90
22491;DHT22;11412;50.802;4.350;2023-04-06T08:31:59;9.50;99.90
22491;DHT22;11412;50.802;4.350;2023-04-06T08:34:25;9.90;99.90
22491;DHT22;11412;50.802;4.350;2023-04-06T08:36:51;9.90;99.90
22491;DHT22;11412;50.802;4.350;2023-04-06T08:39:16;9.80;99.90
22491;DHT22;11412;50.802;4.350;2023-04-06T08:41:42;9.80;99.90
22491;DHT22;11412;50.802;4.350;2023-04-06T08:44:09;9.60;99.90
22491;DHT22;11412;50.802;4.350;2023-04-06T08:46:35;9.30;99.90
22491;DHT22;11412;50.802;4.350;2023-04-06T08:49:02;9.40;99.90
22491;DHT22;11412;50.802;4.350;2023-04-06T08:51:29;9.60;99.90
22491;DHT22;11412;50.802;4.350;2023-04-06T08:53:59;9.60;99.90
22491;DHT22;11412;50.802;4.350;2023-04-06T08:56:27;9.50;99.90
22491;DHT22;11412;50.802;4.350;2023-04-06T08:58:54;9.70;99.90
22491;DHT22;11412;50.802;4.350;2023-04-06T09:01:25;9.80;99.90
22491;DHT22;11412;50.802;4.350;2023-04-06T09:03:56;9.90;99.90
22491;DHT22;11412;50.802;4.350;2023-04-06T09:06:22;9.60;99.90
22491;DHT22;11412;50.802;4.350;2023-04-06T09:08:47;9.20;99.90
22491;DHT22;11412;50.802;4.350;2023-04-06T09:11:14;9.30;99.90
22491;DHT22;11412;50.802;4.350;2023-04-06T09:13:53;9.30;99.90
22491;DHT22;11412;50.802;4.350;2023-04-06T09:16:20;9.40;99.90
22491;DHT22;11412;50.802;4.350;2023-04-06T09:18:47;9.50;99.90
22491;DHT22;11412;50.802;4.350;2023-04-06T09:21:13;9.60;99.90
22491;DHT22;11412;50.802;4.350;2023-04-06T09:23:42;9.70;99.90
22491;DHT22;11412;50.802;4.350;2023-04-06T09:26:11;9.40;99.90
22491;DHT22;11412;50.802;4.350;2023-04-06T09:28:45;9.40;99.90
22491;DHT22;11412;50.802;4.350;2023-04-06T09:31:15;9.10;99.90
22491;DHT22;11412;50.802;4.350;2023-04-06T09:33:42;9.00;99.90
22491;DHT22;11412;50.802;4.350;2023-04-06T09:36:08;9.00;99.90
22491;DHT22;11412;50.802;4.350;2023-04-06T09:38:55;9.10;99.90
22491;DHT22;11412;50.802;4.350;2023-04-06T09:41:26;9.50;99.90
22491;DHT22;11412;50.802;4.350;2023-04-06T09:44:01;9.60;99.90
22491;DHT22;11412;50.802;4.350;2023-04-06T09:46:27;9.60;99.90
22491;DHT22;11412;50.802;4.350;2023-04-06T09:48:57;9.50;99.90
22491;DHT22;11412;50.802;4.350;2023-04-06T09:51:24;9.30;99.90
22491;DHT22;11412;50.802;4.350;2023-04-06T09:53:53;9.40;99.90
22491;DHT22;11412;50.802;4.350;2023-04-06T09:56:23;9.50;99.90
22491;DHT22;11412;50.802;4.350;2023-04-06T09:58:55;9.40;99.90
22491;DHT22;11412;50.802;4.350;2023-04-06T10:01:22;9.60;99.90
22491;DHT22;11412;50.802;4.350;2023-04-06T10:03:54;9.50;99.90
22491;DHT22;11412;50.802;4.350;2023-04-06T10:06:23;9.50;99.90
22491;DHT22;11412;50.802;4.350;2023-04-06T10:08:52;9.60;99.90
22491;DHT22;11412;50.802;4.350;2023-04-06T10:11:20;9.50;99.90
22491;DHT22;11412;50.802;4.350;2023-04-06T10:13:47;9.70;99.90
22491;DHT22;11412;50.802;4.350;2023-04-06T10:16:15;9.50;99.90
22491;DHT22;11412;50.802;4.350;2023-04-06T10:18:46;9.40;99.90
22491;DHT22;11412;50.802;4.350;2023-04-06T10:21:14;9.10;99.90
22491;DHT22;11412;50.802;4.350;2023-04-06T10:23:59;9.40;99.90
22491;DHT22;11412;50.802;4.350;2023-04-06T10:26:25;9.80;99.90
22491;DHT22;11412;50.802;4.350;2023-04-06T10:28:51;9.50;99.90
22491;DHT22;11412;50.802;4.350;2023-04-06T10:31:26;9.40;99.90
22491;DHT22;11412;50.802;4.350;2023-04-06T10:33:56;9.50;99.90
22491;DHT22;11412;50.802;4.350;2023-04-06T10:36:31;9.60;99.90
22491;DHT22;11412;50.802;4.350;2023-04-06T10:38:59;9.60;99.90
22491;DHT22;11412;50.802;4.350;2023-04-06T10:41:33;9.90;99.90
22491;DHT22;11412;50.802;4.350;2023-04-06T10:43:59;9.60;99.90
22491;DHT22;11412;50.802;4.350;2023-04-06T10:46:28;9.70;99.90
22491;DHT22;11412;50.802;4.350;2023-04-06T10:48:54;9.50;99.90
22491;DHT22;11412;50.802;4.350;2023-04-06T10:51:25;9.90;99.90
22491;DHT22;11412;50.802;4.350;2023-04-06T10:53:53;10.10;99.90
22491;DHT22;11412;50.802;4.350;2023-04-06T10:56:23;10.10;99.90
22491;DHT22;11412;50.802;4.350;2023-04-06T10:58:54;10.10;99.90
22491;DHT22;11412;50.802;4.350;2023-04-06T11:01:24;10.10;99.90
22491;DHT22;11412;50.802;4.350;2023-04-06T11:03:56;10.20;99.90
22491;DHT22;11412;50.802;4.350;2023-04-06T11:06:26;10.00;99.90
22491;DHT22;11412;50.802;4.350;2023-04-06T11:08:54;10.00;99.90
22491;DHT22;11412;50.802;4.350;2023-04-06T11:11:22;10.10;99.90
22491;DHT22;11412;50.802;4.350;2023-04-06T11:13:49;10.30;99.90
22491;DHT22;11412;50.802;4.350;2023-04-06T11:16:17;10.30;99.90
22491;DHT22;11412;50.802;4.350;2023-04-06T11:18:59;10.20;99.90
22491;DHT22;11412;50.802;4.350;2023-04-06T11:21:38;10.20;99.90
22491;DHT22;11412;50.802;4.350;2023-04-06T11:24:23;10.20;99.90
22491;DHT22;11412;50.802;4.350;2023-04-06T11:29:24;10.00;99.90
22491;DHT22;11412;50.802;4.350;2023-04-06T11:31:53;9.80;99.90
22491;DHT22;11412;50.802;4.350;2023-04-06T11:34:23;10.00;99.90
22491;DHT22;11412;50.802;4.350;2023-04-06T11:36:55;10.10;99.90
22491;DHT22;11412;50.802;4.350;2023-04-06T11:39:23;10.10;99.90
22491;DHT22;11412;50.802;4.350;2023-04-06T11:41:51;10.30;99.90
22491;DHT22;11412;50.802;4.350;2023-04-06T11:44:36;10.20;99.90
22491;DHT22;11412;50.802;4.350;2023-04-06T11:47:06;9.80;99.90
22491;DHT22;11412;50.802;4.350;2023-04-06T11:49:36;10.00;99.90
22491;DHT22;11412;50.802;4.350;2023-04-06T11:52:03;10.10;99.90
22491;DHT22;11412;50.802;4.350;2023-04-06T11:54:39;10.10;99.90
22491;DHT22;11412;50.802;4.350;2023-04-06T11:57:07;10.20;99.90
22491;DHT22;11412;50.802;4.350;2023-04-06T11:59:35;10.00;99.90
22491;DHT22;11412;50.802;4.350;2023-04-06T12:02:02;10.00;99.90
22491;DHT22;11412;50.802;4.350;2023-04-06T12:04:29;10.10;99.90
22491;DHT22;11412;50.802;4.350;2023-04-06T12:06:55;9.70;99.90
22491;DHT22;11412;50.802;4.350;2023-04-06T12:09:21;10.00;99.90
22491;DHT22;11412;50.802;4.350;2023-04-06T12:11:47;10.10;99.90
22491;DHT22;11412;50.802;4.350;2023-04-06T12:14:13;10.20;99.90
22491;DHT22;11412;50.802;4.350;2023-04-06T12:16:39;10.00;99.90
22491;DHT22;11412;50.802;4.350;2023-04-06T12:19:05;10.20;99.90
22491;DHT22;11412;50.802;4.350;2023-04-06T12:21:32;10.20;99.90
22491;DHT22;11412;50.802;4.350;2023-04-06T12:23:58;10.10;99.90
22491;DHT22;11412;50.802;4.350;2023-04-06T12:26:25;10.30;99.90
22491;DHT22;11412;50.802;4.350;2023-04-06T12:28:52;10.10;99.90
22491;DHT22;11412;50.802;4.350;2023-04-06T12:31:19;9.90;99.90
22491;DHT22;11412;50.802;4.350;2023-04-06T12:33:49;10.10;99.90
22491;DHT22;11412;50.802;4.350;2023-04-06T12:36:19;10.30;99.90
22491;DHT22;11412;50.802;4.350;2023-04-06T12:38:46;10.30;99.90
22491;DHT22;11412;50.802;4.350;2023-04-06T12:41:12;9.70;99.90
22491;DHT22;11412;50.802;4.350;2023-04-06T12:43:40;9.90;99.90
22491;DHT22;11412;50.802;4.350;2023-04-06T12:46:06;9.90;99.90
22491;DHT22;11412;50.802;4.350;2023-04-06T12:48:31;9.60;99.90
22491;DHT22;11412;50.802;4.350;2023-04-06T12:50:59;9.70;99.90
22491;DHT22;11412;50.802;4.350;2023-04-06T12:53:25;9.50;99.90
22491;DHT22;11412;50.802;4.350;2023-04-06T12:55:53;9.70;99.90
22491;DHT22;11412;50.802;4.350;2023-04-06T12:58:19;9.80;99.90
22491;DHT22;11412;50.802;4.350;2023-04-06T13:00:44;10.00;99.90
22491;DHT22;11412;50.802;4.350;2023-04-06T13:03:10;10.00;99.90
22491;DHT22;11412;50.802;4.350;2023-04-06T13:05:43;10.00;99.90
22491;DHT22;11412;50.802;4.350;2023-04-06T13:08:08;10.00;99.90
22491;DHT22;11412;50.802;4.350;2023-04-06T13:10:34;10.00;99.90
22491;DHT22;11412;50.802;4.350;2023-04-06T13:13:00;10.00;99.90
22491;DHT22;11412;50.802;4.350;2023-04-06T13:15:25;10.00;99.90
22491;DHT22;11412;50.802;4.350;2023-04-06T13:17:51;10.00;99.90
22491;DHT22;11412;50.802;4.350;2023-04-06T13:20:17;9.90;99.90
22491;DHT22;11412;50.802;4.350;2023-04-06T13:22:43;9.70;99.90
22491;DHT22;11412;50.802;4.350;2023-04-06T13:25:08;9.80;99.90
22491;DHT22;11412;50.802;4.350;2023-04-06T13:27:34;10.00;99.90
22491;DHT22;11412;50.802;4.350;2023-04-06T13:30:02;10.10;99.90
22491;DHT22;11412;50.802;4.350;2023-04-06T13:32:28;10.10;99.90
22491;DHT22;11412;50.802;4.350;2023-04-06T13:34:57;10.00;99.90
22491;DHT22;11412;50.802;4.350;2023-04-06T13:37:23;10.10;99.90
22491;DHT22;11412;50.802;4.350;2023-04-06T13:39:49;10.10;99.90
22491;DHT22;11412;50.802;4.350;2023-04-06T13:42:15;10.30;99.90
22491;DHT22;11412;50.802;4.350;2023-04-06T13:44:41;10.20;99.90
22491;DHT22;11412;50.802;4.350;2023-04-06T13:47:06;10.00;99.90
22491;DHT22;11412;50.802;4.350;2023-04-06T13:49:32;10.00;99.90
22491;DHT22;11412;50.802;4.350;2023-04-06T13:51:58;10.00;99.90
22491;DHT22;11412;50.802;4.350;2023-04-06T13:54:23;10.10;99.90
22491;DHT22;11412;50.802;4.350;2023-04-06T13:56:51;10.10;99.90
22491;DHT22;11412;50.802;4.350;2023-04-06T13:59:18;10.10;99.90
22491;DHT22;11412;50.802;4.350;2023-04-06T14:01:43;10.00;99.90
22491;DHT22;11412;50.802;4.350;2023-04-06T14:04:10;10.00;99.90
22491;DHT22;11412;50.802;4.350;2023-04-06T14:06:37;10.00;99.90
22491;DHT22;11412;50.802;4.350;2023-04-06T14:09:02;10.20;99.90
22491;DHT22;11412;50.802;4.350;2023-04-06T14:11:29;10.20;99.90
22491;DHT22;11412;50.802;4.350;2023-04-06T14:13:55;10.20;99.90
22491;DHT22;11412;50.802;4.350;2023-04-06T14:16:23;10.30;99.90
22491;DHT22;11412;50.802;4.350;2023-04-06T14:18:49;10.30;99.90
22491;DHT22;11412;50.802;4.350;2023-04-06T14:21:16;10.30;99.90
22491;DHT22;11412;50.802;4.350;2023-04-06T14:23:42;10.30;99.90
22491;DHT22;11412;50.802;4.350;2023-04-06T14:26:08;10.30;99.90
22491;DHT22;11412;50.802;4.350;2023-04-06T14:28:34;10.40;99.90
22491;DHT22;11412;50.802;4.350;2023-04-06T14:31:09;10.60;99.90
22491;DHT22;11412;50.802;4.350;2023-04-06T14:33:35;10.50;99.90
22491;DHT22;11412;50.802;4.350;2023-04-06T14:36:04;10.50;99.90
22491;DHT22;11412;50.802;4.350;2023-04-06T14:38:31;10.50;99.90
22491;DHT22;11412;50.802;4.350;2023-04-06T14:40:57;10.60;99.90
22491;DHT22;11412;50.802;4.350;2023-04-06T14:43:23;10.80;99.90
22491;DHT22;11412;50.802;4.350;2023-04-06T14:45:50;10.70;99.90
22491;DHT22;11412;50.802;4.350;2023-04-06T14:48:15;10.80;99.90
22491;DHT22;11412;50.802;4.350;2023-04-06T14:50:54;10.90;99.90
22491;DHT22;11412;50.802;4.350;2023-04-06T14:53:22;10.90;99.90
22491;DHT22;11412;50.802;4.350;2023-04-06T14:55:48;10.80;99.90
22491;DHT22;11412;50.802;4.350;2023-04-06T14:58:17;10.60;99.90
22491;DHT22;11412;50.802;4.350;2023-04-06T15:00:43;10.80;99.90
22491;DHT22;11412;50.802;4.350;2023-04-06T15:03:08;11.00;99.90
22491;DHT22;11412;50.802;4.350;2023-04-06T15:05:34;11.00;99.90
22491;DHT22;11412;50.802;4.350;2023-04-06T15:08:00;11.20;99.90
22491;DHT22;11412;50.802;4.350;2023-04-06T15:10:26;11.20;99.90
22491;DHT22;11412;50.802;4.350;2023-04-06T15:12:52;11.20;99.90
22491;DHT22;11412;50.802;4.350;2023-04-06T15:15:18;11.40;99.90
22491;DHT22;11412;50.802;4.350;2023-04-06T15:17:44;11.40;99.90
22491;DHT22;11412;50.802;4.350;2023-04-06T15:20:10;11.50;99.90
22491;DHT22;11412;50.802;4.350;2023-04-06T15:22:35;11.80;99.90
22491;DHT22;11412;50.802;4.350;2023-04-06T15:25:01;11.70;99.90
22491;DHT22;11412;50.802;4.350;2023-04-06T15:27:27;11.80;99.90
22491;DHT22;11412;50.802;4.350;2023-04-06T15:29:53;11.70;99.90
22491;DHT22;11412;50.802;4.350;2023-04-06T15:32:19;11.60;99.90
22491;DHT22;11412;50.802;4.350;2023-04-06T15:34:45;11.40;99.90
22491;DHT22;11412;50.802;4.350;2023-04-06T15:37:10;11.70;99.90
22491;DHT22;11412;50.802;4.350;2023-04-06T15:39:36;11.80;99.90
22491;DHT22;11412;50.802;4.350;2023-04-06T15:42:03;11.80;99.90